createdAt,value
2023-10-24T00:04:36.344Z,960.72
2023-10-24T00:09:48.453Z,960.91
2023-10-24T00:15:00.746Z,960.84
2023-10-24T00:20:12.884Z,960.93
2023-10-24T00:25:25.108Z,960.86
2023-10-24T00:30:41.174Z,960.97
2023-10-24T00:35:53.237Z,961.11
2023-10-24T00:41:05.326Z,961.05
2023-10-24T00:46:21.209Z,961.01
2023-10-24T00:51:33.330Z,961.01
2023-10-24T00:56:45.297Z,960.92
2023-10-24T01:01:57.498Z,960.72
2023-10-24T01:07:09.643Z,960.6
2023-10-24T01:12:21.715Z,960.69
2023-10-24T01:17:33.956Z,960.65
2023-10-24T01:22:45.921Z,960.47
2023-10-24T01:27:58.098Z,960.35
2023-10-24T01:33:10.105Z,960.47
2023-10-24T01:38:22.299Z,960.4
2023-10-24T01:43:34.476Z,960.47
2023-10-24T01:48:46.595Z,960.49
2023-10-24T01:53:58.804Z,960.56
2023-10-24T01:59:10.755Z,960.52
2023-10-24T02:04:26.056Z,960.74
2023-10-24T02:09:38.244Z,960.53
2023-10-24T02:14:50.329Z,960.63
2023-10-24T02:20:02.422Z,960.56
2023-10-24T02:25:14.407Z,960.51
2023-10-24T02:30:26.573Z,960.47
2023-10-24T02:35:38.647Z,960.61
2023-10-24T02:40:50.634Z,960.62
2023-10-24T02:46:02.848Z,960.57
2023-10-24T02:51:14.820Z,960.55
2023-10-24T02:56:26.969Z,960.46
2023-10-24T03:01:39.637Z,960.55
2023-10-24T03:06:51.844Z,960.59
2023-10-24T03:12:03.792Z,960.5
2023-10-24T03:17:16.221Z,960.4
2023-10-24T03:22:28.413Z,960.23
2023-10-24T03:27:40.536Z,960.14
2023-10-24T03:32:52.735Z,959.96
2023-10-24T03:38:04.844Z,959.85
2023-10-24T03:43:17.349Z,959.87
2023-10-24T03:48:29.550Z,959.65
2023-10-24T03:53:41.757Z,959.74
2023-10-24T03:58:53.867Z,959.76
2023-10-24T04:04:06.002Z,959.92
2023-10-24T04:09:31.307Z,959.89
2023-10-24T04:14:49.907Z,959.8
2023-10-24T04:20:02.056Z,959.91
2023-10-24T04:25:14.177Z,959.87
2023-10-24T04:30:26.303Z,959.86
2023-10-24T04:35:39.490Z,959.8
2023-10-24T04:40:51.642Z,959.73
2023-10-24T04:46:04.160Z,959.48
2023-10-24T04:51:18.294Z,959.48
2023-10-24T04:56:30.191Z,959.56
2023-10-24T05:01:42.485Z,959.53
2023-10-24T05:06:54.635Z,959.38
2023-10-24T05:12:06.727Z,959.39
2023-10-24T05:17:18.736Z,959.31
2023-10-24T05:22:30.832Z,959.1
2023-10-24T05:27:42.941Z,959.06
2023-10-24T05:32:55.085Z,959.04
2023-10-24T05:38:07.052Z,959.08
2023-10-24T05:43:19.681Z,959.09
2023-10-24T05:48:31.832Z,959.06
2023-10-24T05:53:43.906Z,959.05
2023-10-24T05:58:57.854Z,959
2023-10-24T06:04:09.959Z,959.07
2023-10-24T06:09:21.973Z,959.13
2023-10-24T06:14:33.925Z,959.14
2023-10-24T06:19:46.092Z,959.23
2023-10-24T06:24:58.294Z,959.16
2023-10-24T06:30:10.388Z,959.23
2023-10-24T06:35:22.501Z,959.21
2023-10-24T06:40:34.703Z,959.14
2023-10-24T06:45:47.046Z,959.24
2023-10-24T06:50:59.126Z,959.21
2023-10-24T06:56:11.209Z,959.1
2023-10-24T07:01:23.232Z,959.06
2023-10-24T07:06:35.243Z,959.24
2023-10-24T07:11:48.421Z,959.25
2023-10-24T07:17:00.514Z,959.24
2023-10-24T07:22:12.652Z,959.25
2023-10-24T07:27:24.606Z,959.35
2023-10-24T07:32:36.646Z,959.41
2023-10-24T07:37:49.348Z,959.26
2023-10-24T07:43:01.471Z,959.11
2023-10-24T07:48:13.519Z,959.22
2023-10-24T07:53:25.514Z,959.16
2023-10-24T07:58:37.793Z,959.35
2023-10-24T08:03:49.935Z,959.26
2023-10-24T08:09:04.968Z,959.43
2023-10-24T08:14:17.091Z,959.28
2023-10-24T08:19:29.222Z,959.25
2023-10-24T08:24:41.461Z,959.16
2023-10-24T08:29:53.649Z,959.14
2023-10-24T08:35:05.803Z,959.25
2023-10-24T08:40:17.926Z,959.27
2023-10-24T08:45:30.039Z,959.34
2023-10-24T08:50:42.000Z,959.31
2023-10-24T08:55:54.001Z,959.37
2023-10-24T09:01:06.254Z,959.5
2023-10-24T09:06:18.439Z,959.58
2023-10-24T09:11:30.393Z,959.5
2023-10-24T09:16:42.602Z,959.52
2023-10-24T09:22:06.082Z,959.55
2023-10-24T09:27:19.487Z,959.61
2023-10-24T09:32:31.638Z,959.56
2023-10-24T09:37:43.867Z,959.64
2023-10-24T09:42:55.981Z,959.64
2023-10-24T09:48:07.969Z,959.58
2023-10-24T09:53:20.114Z,959.63
2023-10-24T09:58:32.303Z,959.5
2023-10-24T10:03:44.554Z,959.42
2023-10-24T10:08:56.710Z,959.36
2023-10-24T10:14:08.704Z,959.3
2023-10-24T10:19:20.722Z,959.23
2023-10-24T10:24:32.702Z,959.16
2023-10-24T10:29:44.858Z,959.13
2023-10-24T10:34:57.117Z,959.09
2023-10-24T10:40:09.357Z,959.09
2023-10-24T10:45:21.333Z,959.12
2023-10-24T10:50:33.417Z,958.96
2023-10-24T10:55:45.531Z,958.9
2023-10-24T11:00:57.522Z,958.88
2023-10-24T11:06:09.666Z,958.87
2023-10-24T11:11:21.713Z,958.89
2023-10-24T11:16:38.772Z,958.92
2023-10-24T11:21:51.807Z,958.89
2023-10-24T11:27:03.942Z,958.9
2023-10-24T11:32:16.071Z,958.83
2023-10-24T11:37:28.130Z,958.74
2023-10-24T11:42:40.242Z,958.75
2023-10-24T11:47:52.420Z,958.69
2023-10-24T11:53:05.218Z,958.53
2023-10-24T11:58:17.352Z,958.55
2023-10-24T12:03:29.432Z,958.55
2023-10-24T12:08:41.500Z,958.48
2023-10-24T12:13:53.572Z,958.42
2023-10-24T12:19:05.624Z,958.5
2023-10-24T12:24:17.736Z,958.45
2023-10-24T12:29:29.952Z,958.44
2023-10-24T12:39:59.627Z,958.37
2023-10-24T12:45:11.650Z,958.4
2023-10-24T12:50:23.748Z,958.32
2023-10-24T12:55:36.521Z,958.3
2023-10-24T13:00:48.762Z,958.28
2023-10-24T13:06:00.896Z,958.29
2023-10-24T13:16:31.184Z,958.3
2023-10-24T13:21:43.213Z,958.24
2023-10-24T13:26:55.201Z,958.21
2023-10-24T13:32:07.324Z,958.14
2023-10-24T13:37:19.372Z,958.11
2023-10-24T13:42:31.407Z,958.11
2023-10-24T13:47:43.478Z,958.13
2023-10-24T13:52:55.611Z,958.15
2023-10-24T13:58:07.659Z,958.14
2023-10-24T14:08:37.631Z,958.09
2023-10-24T14:13:50.011Z,958.08
2023-10-24T14:19:02.009Z,958.05
2023-10-24T14:24:14.032Z,958.05
2023-10-24T14:29:26.102Z,958.1
2023-10-24T14:34:38.365Z,957.98
2023-10-24T14:39:50.502Z,958.22
2023-10-24T14:45:02.608Z,958.12
2023-10-24T14:50:14.746Z,958.29
2023-10-24T14:55:26.890Z,958.25
2023-10-24T15:00:39.168Z,958.07
2023-10-24T15:05:51.244Z,958.05
2023-10-24T15:11:03.504Z,958.09
2023-10-24T15:16:15.553Z,958.08
2023-10-24T15:21:27.560Z,958.01
2023-10-24T15:26:41.330Z,958.09
2023-10-24T15:31:53.367Z,958.05
2023-10-24T15:37:05.554Z,958.03
2023-10-24T15:42:18.012Z,958.02
2023-10-24T15:47:30.174Z,957.98
2023-10-24T15:52:42.226Z,958.06
2023-10-24T15:57:57.680Z,957.94
2023-10-24T16:03:11.087Z,957.97
2023-10-24T16:08:23.237Z,957.83
2023-10-24T16:13:35.403Z,957.86
2023-10-24T16:18:47.502Z,957.95
2023-10-24T16:24:03.710Z,957.83
2023-10-24T16:29:16.212Z,957.87
2023-10-24T16:34:28.247Z,957.92
2023-10-24T16:39:40.200Z,958.01
2023-10-24T16:44:52.202Z,957.93
2023-10-24T16:50:04.194Z,957.95
2023-10-24T16:55:16.177Z,958.06
2023-10-24T17:00:28.135Z,958.14
2023-10-24T17:05:40.242Z,958.18
2023-10-24T17:10:52.376Z,958.37
2023-10-24T17:16:05.205Z,958.36
2023-10-24T17:21:17.464Z,958.31
2023-10-24T17:26:29.576Z,958.29
2023-10-24T17:31:41.797Z,958.21
2023-10-24T17:36:53.947Z,958.17
2023-10-24T17:42:05.921Z,958.17
2023-10-24T17:47:18.177Z,958.3
2023-10-24T17:52:30.272Z,958.24
2023-10-24T17:57:42.365Z,958.36
2023-10-24T18:02:54.522Z,958.45
2023-10-24T18:08:06.601Z,958.57
2023-10-24T18:13:18.640Z,958.6
2023-10-24T18:18:33.241Z,958.69
2023-10-24T18:23:46.044Z,958.68
2023-10-24T18:28:58.177Z,958.8
2023-10-24T18:34:10.196Z,958.82
2023-10-24T18:39:22.376Z,958.9
2023-10-24T18:39:34.292Z,958.87
2023-10-24T18:44:46.442Z,958.83
2023-10-24T18:49:58.647Z,958.91
2023-10-24T18:55:10.777Z,958.85
2023-10-24T19:00:22.937Z,958.82
2023-10-24T19:05:35.052Z,958.96
2023-10-24T19:10:47.159Z,958.96
2023-10-24T19:16:00.274Z,959.08
2023-10-24T19:21:12.999Z,959.07
2023-10-24T19:26:24.969Z,958.97
2023-10-24T19:31:37.137Z,959.05
2023-10-24T19:36:49.143Z,959.11
2023-10-24T19:42:01.138Z,959.16
2023-10-24T19:47:13.168Z,959.19
2023-10-24T19:52:25.138Z,959.19
2023-10-24T19:57:37.570Z,959.3
2023-10-24T20:02:49.806Z,959.22
2023-10-24T20:08:02.126Z,959.17
2023-10-24T20:13:14.157Z,959.22
2023-10-24T20:18:26.597Z,959.25
2023-10-24T20:23:38.819Z,959.23
2023-10-24T20:28:50.845Z,959.2
2023-10-24T20:34:02.875Z,959.17
2023-10-24T20:39:15.115Z,959.23
2023-10-24T20:44:27.239Z,959.16
2023-10-24T20:49:40.065Z,959.21
2023-10-24T20:54:55.958Z,959.3
2023-10-24T21:00:08.128Z,959.35
2023-10-24T21:05:20.754Z,959.4
2023-10-24T21:10:36.158Z,959.33
2023-10-24T21:15:48.944Z,959.36
2023-10-24T21:21:01.049Z,959.33
2023-10-24T21:26:13.146Z,959.29
2023-10-24T21:31:25.407Z,959.33
2023-10-24T21:36:37.489Z,959.31
2023-10-24T21:41:49.459Z,959.37
2023-10-24T21:47:01.747Z,959.29
2023-10-24T21:52:13.944Z,959.4
2023-10-24T21:57:26.051Z,959.26
2023-10-24T22:02:38.065Z,959.38
2023-10-24T22:07:50.102Z,959.33
2023-10-24T22:13:02.100Z,959.45
2023-10-24T22:18:14.146Z,959.4
2023-10-24T22:23:28.041Z,959.4
2023-10-24T22:28:40.006Z,959.32
2023-10-24T22:33:52.162Z,959.33
2023-10-24T22:39:08.859Z,959.3
2023-10-24T22:44:21.154Z,959.34
2023-10-24T22:49:33.170Z,959.36
2023-10-24T22:54:45.335Z,959.38
2023-10-24T22:59:57.438Z,959.36
2023-10-24T23:05:09.428Z,959.33
2023-10-24T23:10:21.611Z,959.19
2023-10-24T23:15:33.930Z,959.19
2023-10-24T23:20:46.206Z,959.19
2023-10-24T23:25:58.169Z,959.11
2023-10-24T23:31:10.258Z,959.18
2023-10-24T23:36:23.024Z,959.28
2023-10-24T23:41:35.111Z,959.22
2023-10-24T23:46:47.296Z,959.19
2023-10-24T23:51:59.532Z,959.12
2023-10-24T23:57:11.531Z,958.94
